createdAt,value
2023-05-07T00:01:03.524Z,100397.41
2023-05-07T00:03:33.418Z,100400.44
2023-05-07T00:05:59.999Z,100390.97
2023-05-07T00:08:26.438Z,100387.34
2023-05-07T00:10:56.849Z,100385.81
2023-05-07T00:13:23.381Z,100393.75
2023-05-07T00:15:49.942Z,100384.16
2023-05-07T00:18:16.881Z,100364.22
2023-05-07T00:20:43.235Z,100368.53
2023-05-07T00:23:10.163Z,100357.25
2023-05-07T00:25:36.625Z,100358.22
2023-05-07T00:28:04.740Z,100354.91
2023-05-07T00:30:31.315Z,100359.47
2023-05-07T00:32:57.783Z,100366.72
2023-05-07T00:35:24.362Z,100363.38
2023-05-07T00:37:50.867Z,100373.13
2023-05-07T00:40:17.269Z,100370.84
2023-05-07T00:42:47.850Z,100359.59
2023-05-07T00:45:17.809Z,100367.94
2023-05-07T00:47:44.886Z,100356.94
2023-05-07T00:50:14.214Z,100364.72
2023-05-07T00:52:42.776Z,100361.63
2023-05-07T00:55:09.432Z,100351.31
2023-05-07T00:57:38.451Z,100360.22
2023-05-07T01:00:07.064Z,100356.75
2023-05-07T01:02:33.461Z,100342.69
2023-05-07T01:05:04.251Z,100334.34
2023-05-07T01:07:33.474Z,100342.28
2023-05-07T01:09:59.913Z,100344.22
2023-05-07T01:12:26.676Z,100354.94
2023-05-07T01:14:53.300Z,100348.34
2023-05-07T01:17:22.246Z,100349.31
2023-05-07T01:19:51.107Z,100339.28
2023-05-07T01:22:23.004Z,100345.41
2023-05-07T01:24:49.632Z,100349.25
2023-05-07T01:27:18.449Z,100345.34
2023-05-07T01:29:44.932Z,100336.03
2023-05-07T01:32:12.619Z,100342.28
2023-05-07T01:34:40.715Z,100332.69
2023-05-07T01:37:08.693Z,100344.22
2023-05-07T01:39:40.874Z,100344.22
2023-05-07T01:42:07.875Z,100344.22
2023-05-07T01:44:34.622Z,100334.16
2023-05-07T01:47:02.593Z,100344.16
2023-05-07T01:49:29.215Z,100343.88
2023-05-07T01:51:56.960Z,100348.44
2023-05-07T01:54:29.624Z,100346.50
2023-05-07T01:57:00.420Z,100346.75
2023-05-07T01:59:27.020Z,100343.78
2023-05-07T02:01:56.553Z,100344.31
2023-05-07T02:04:26.122Z,100342.06
2023-05-07T02:06:53.667Z,100343.41
2023-05-07T02:09:20.248Z,100342.00
2023-05-07T02:11:49.496Z,100334.44
2023-05-07T02:14:16.394Z,100336.38
2023-05-07T02:16:42.944Z,100340.00
2023-05-07T02:19:09.386Z,100349.44
2023-05-07T02:21:35.838Z,100346.94
2023-05-07T02:24:04.782Z,100333.53
2023-05-07T02:26:31.165Z,100344.78
2023-05-07T02:28:57.618Z,100342.16
2023-05-07T02:31:24.112Z,100345.75
2023-05-07T02:33:50.753Z,100354.66
2023-05-07T02:36:17.360Z,100355.75
2023-05-07T02:38:45.993Z,100359.44
2023-05-07T02:41:12.487Z,100364.38
2023-05-07T02:43:38.949Z,100362.09
2023-05-07T02:46:07.104Z,100350.94
2023-05-07T02:48:34.341Z,100347.75
2023-05-07T02:51:01.258Z,100348.97
2023-05-07T02:53:30.476Z,100343.22
2023-05-07T02:55:58.587Z,100340.38
2023-05-07T02:58:25.260Z,100347.19
2023-05-07T03:00:51.789Z,100352.94
2023-05-07T03:03:18.633Z,100348.75
2023-05-07T03:05:47.656Z,100344.69
2023-05-07T03:08:16.388Z,100351.91
2023-05-07T03:10:45.540Z,100344.25
2023-05-07T03:13:12.132Z,100343.53
2023-05-07T03:15:38.795Z,100333.59
2023-05-07T03:18:05.368Z,100318.03
2023-05-07T03:20:32.053Z,100324.84
2023-05-07T03:23:01.030Z,100325.69
2023-05-07T03:25:27.610Z,100327.03
2023-05-07T03:27:54.194Z,100325.59
2023-05-07T03:30:21.090Z,100324.75
2023-05-07T03:32:47.528Z,100332.56
2023-05-07T03:35:13.935Z,100320.25
2023-05-07T03:37:40.802Z,100324.69
2023-05-07T03:40:09.103Z,100330.78
2023-05-07T03:42:38.116Z,100333.81
2023-05-07T03:45:04.829Z,100334.72
2023-05-07T03:47:31.346Z,100332.97
2023-05-07T03:49:57.830Z,100333.31
2023-05-07T03:52:27.098Z,100329.13
2023-05-07T03:54:54.534Z,100336.19
2023-05-07T03:57:21.406Z,100338.13
2023-05-07T03:59:47.800Z,100338.38
2023-05-07T04:02:14.450Z,100338.63
2023-05-07T04:04:40.972Z,100351.19
2023-05-07T04:07:08.413Z,100342.94
2023-05-07T04:09:34.959Z,100346.03
2023-05-07T04:12:02.306Z,100360.63
2023-05-07T04:14:28.781Z,100357.16
2023-05-07T04:16:55.615Z,100350.22
2023-05-07T04:19:22.367Z,100348.41
2023-05-07T04:21:48.850Z,100354.88
2023-05-07T04:24:15.258Z,100351.28
2023-05-07T04:26:41.651Z,100347.44
2023-05-07T04:29:08.642Z,100351.63
2023-05-07T04:31:37.447Z,100350.28
2023-05-07T04:34:03.784Z,100365.38
2023-05-07T04:36:30.640Z,100356.72
2023-05-07T04:38:57.122Z,100361.22
2023-05-07T04:41:23.588Z,100359.78
2023-05-07T04:43:49.983Z,100361.84
2023-05-07T04:46:16.460Z,100357.72
2023-05-07T04:48:45.455Z,100359.66
2023-05-07T04:51:12.000Z,100369.88
2023-05-07T04:53:38.812Z,100368.25
2023-05-07T04:56:05.370Z,100379.72
2023-05-07T04:58:32.684Z,100376.06
2023-05-07T05:01:00.205Z,100380.41
2023-05-07T05:03:26.977Z,100370.88
2023-05-07T05:05:53.979Z,100385.06
2023-05-07T05:08:20.522Z,100383.72
2023-05-07T05:10:47.248Z,100382.78
2023-05-07T05:13:13.885Z,100384.19
2023-05-07T05:15:40.613Z,100390.47
2023-05-07T05:18:09.566Z,100384.78
2023-05-07T05:20:36.128Z,100389.13
2023-05-07T05:23:02.696Z,100389.31
2023-05-07T05:25:29.432Z,100384.44
2023-05-07T05:27:56.175Z,100384.91
2023-05-07T05:30:23.268Z,100390.63
2023-05-07T05:32:49.774Z,100389.41
2023-05-07T05:35:16.533Z,100393.16
2023-05-07T05:37:43.049Z,100389.53
2023-05-07T05:40:09.945Z,100387.88
2023-05-07T05:42:36.613Z,100389.41
2023-05-07T05:45:03.175Z,100390.38
2023-05-07T05:47:30.858Z,100390.94
2023-05-07T05:49:57.302Z,100394.16
2023-05-07T05:52:26.009Z,100396.38
2023-05-07T05:54:53.664Z,100385.75
2023-05-07T05:57:20.283Z,100391.88
2023-05-07T05:59:48.480Z,100389.34
2023-05-07T06:02:15.125Z,100382.75
2023-05-07T06:04:41.916Z,100387.19
2023-05-07T06:07:08.395Z,100393.69
2023-05-07T06:09:34.724Z,100389.00
2023-05-07T06:12:01.233Z,100390.31
2023-05-07T06:14:27.760Z,100394.41
2023-05-07T06:16:54.285Z,100390.69
2023-05-07T06:19:24.998Z,100391.22
2023-05-07T06:21:51.722Z,100391.44
2023-05-07T06:24:18.133Z,100392.03
2023-05-07T06:26:44.608Z,100398.50
2023-05-07T06:29:11.104Z,100394.47
2023-05-07T06:31:37.654Z,100396.84
2023-05-07T06:34:04.230Z,100398.91
2023-05-07T06:36:33.253Z,100398.19
2023-05-07T06:39:02.388Z,100400.84
2023-05-07T06:41:28.921Z,100408.97
2023-05-07T06:43:55.449Z,100401.06
2023-05-07T06:46:21.917Z,100396.72
2023-05-07T06:48:48.456Z,100389.84
2023-05-07T06:51:14.798Z,100398.09
2023-05-07T06:53:41.550Z,100373.16
2023-05-07T06:56:07.920Z,100362.84
2023-05-07T06:58:35.189Z,100364.94
2023-05-07T07:01:04.095Z,100376.25
2023-05-07T07:03:33.330Z,100377.22
2023-05-07T07:06:00.366Z,100378.84
2023-05-07T07:08:26.854Z,100377.75
2023-05-07T07:10:53.208Z,100376.34
2023-05-07T07:13:20.793Z,100385.38
2023-05-07T07:15:47.397Z,100373.91
2023-05-07T07:18:13.940Z,100350.47
2023-05-07T07:20:42.554Z,100338.97
2023-05-07T07:23:08.971Z,100353.22
2023-05-07T07:25:35.419Z,100352.34
2023-05-07T07:28:03.669Z,100342.31
2023-05-07T07:30:30.071Z,100354.28
2023-05-07T07:33:01.434Z,100339.94
2023-05-07T07:35:28.122Z,100351.63
2023-05-07T07:37:54.444Z,100362.59
2023-05-07T07:40:20.928Z,100358.44
2023-05-07T07:42:50.545Z,100354.25
2023-05-07T07:45:16.944Z,100362.94
2023-05-07T07:47:43.727Z,100361.56
2023-05-07T07:50:18.719Z,100362.84
2023-05-07T07:52:51.663Z,100356.13
2023-05-07T07:55:23.837Z,100373.09
2023-05-07T07:57:50.861Z,100372.00
2023-05-07T08:00:20.050Z,100378.63
2023-05-07T08:02:46.521Z,100380.81
2023-05-07T08:05:12.946Z,100377.06
2023-05-07T08:07:41.784Z,100375.69
2023-05-07T08:10:11.087Z,100360.84
2023-05-07T08:12:37.821Z,100356.13
2023-05-07T08:15:05.649Z,100356.19
2023-05-07T08:17:34.406Z,100351.19
2023-05-07T08:20:03.087Z,100353.34
2023-05-07T08:22:29.573Z,100363.78
2023-05-07T08:24:56.323Z,100364.63
2023-05-07T08:27:22.666Z,100356.69
2023-05-07T08:29:54.889Z,100361.22
2023-05-07T08:32:25.266Z,100355.41
2023-05-07T08:34:52.108Z,100365.97
2023-05-07T08:37:18.492Z,100353.41
2023-05-07T08:39:44.899Z,100361.34
2023-05-07T08:42:16.816Z,100355.47
2023-05-07T08:44:47.882Z,100349.78
2023-05-07T08:47:14.410Z,100331.50
2023-05-07T08:49:41.067Z,100333.38
2023-05-07T08:52:10.255Z,100325.66
2023-05-07T08:54:40.474Z,100330.25
2023-05-07T08:57:09.245Z,100336.28
2023-05-07T08:59:35.845Z,100331.41
2023-05-07T09:02:09.830Z,100334.81
2023-05-07T09:04:38.757Z,100335.63
2023-05-07T09:07:06.360Z,100336.00
2023-05-07T09:09:37.844Z,100308.72
2023-05-07T09:12:04.843Z,100307.16
2023-05-07T09:14:31.633Z,100308.75
2023-05-07T09:16:58.042Z,100311.22
2023-05-07T09:19:25.821Z,100325.09
2023-05-07T09:22:07.856Z,100337.28
2023-05-07T09:24:38.802Z,100324.06
2023-05-07T09:27:06.111Z,100325.78
2023-05-07T09:29:38.808Z,100315.31
2023-05-07T09:32:09.706Z,100328.63
2023-05-07T09:34:37.151Z,100331.22
2023-05-07T09:37:05.436Z,100326.53
2023-05-07T09:39:48.705Z,100330.50
2023-05-07T09:42:17.951Z,100332.88
2023-05-07T09:44:45.470Z,100324.88
2023-05-07T09:47:19.180Z,100318.31
2023-05-07T09:49:48.869Z,100323.34
2023-05-07T09:52:18.649Z,100310.63
2023-05-07T09:54:46.158Z,100316.69
2023-05-07T09:57:13.010Z,100311.97
2023-05-07T09:59:41.380Z,100307.38
2023-05-07T10:02:11.328Z,100309.28
2023-05-07T10:04:43.575Z,100298.28
2023-05-07T10:07:10.612Z,100296.78
2023-05-07T10:09:39.417Z,100305.75
2023-05-07T10:12:07.299Z,100288.06
2023-05-07T10:14:34.692Z,100287.97
2023-05-07T10:17:02.931Z,100287.75
2023-05-07T10:19:30.917Z,100294.78
2023-05-07T10:22:02.848Z,100287.50
2023-05-07T10:24:37.895Z,100278.19
2023-05-07T10:27:13.351Z,100280.88
2023-05-07T10:29:58.529Z,100280.88
2023-05-07T10:32:43.615Z,100289.34
2023-05-07T10:35:24.928Z,100271.91
2023-05-07T10:37:51.919Z,100278.56
2023-05-07T10:40:21.828Z,100283.94
2023-05-07T10:43:01.351Z,100280.19
2023-05-07T10:45:29.115Z,100285.69
2023-05-07T10:50:43.282Z,100270.41
2023-05-07T10:53:21.515Z,100282.19
2023-05-07T10:55:53.597Z,100281.31
2023-05-07T10:58:31.440Z,100274.47
2023-05-07T11:00:59.586Z,100278.53
2023-05-07T11:03:27.219Z,100273.38
2023-05-07T11:06:09.691Z,100274.75
2023-05-07T11:08:56.536Z,100270.91
2023-05-07T11:11:48.676Z,100261.78
2023-05-07T11:14:35.838Z,100250.53
2023-05-07T11:17:07.888Z,100231.44
2023-05-07T11:19:51.548Z,100239.72
2023-05-07T11:22:33.949Z,100255.28
2023-05-07T11:25:01.457Z,100233.84
2023-05-07T11:27:28.019Z,100219.88
2023-05-07T11:29:54.521Z,100231.09
2023-05-07T11:32:26.228Z,100243.50
2023-05-07T11:34:53.890Z,100233.81
2023-05-07T11:37:21.635Z,100228.97
2023-05-07T11:40:04.957Z,100234.34
2023-05-07T11:42:35.595Z,100223.19
2023-05-07T11:45:02.874Z,100201.44
2023-05-07T11:47:31.641Z,100217.38
2023-05-07T11:50:05.446Z,100216.34
2023-05-07T11:52:33.113Z,100221.91
2023-05-07T11:55:01.019Z,100226.41
2023-05-07T11:57:30.402Z,100214.09
2023-05-07T11:59:59.725Z,100214.53
2023-05-07T12:02:29.481Z,100217.72
2023-05-07T12:04:56.204Z,100210.06
2023-05-07T12:07:24.715Z,100199.72
2023-05-07T12:09:51.347Z,100211.72
2023-05-07T12:12:18.365Z,100217.16
2023-05-07T12:14:46.590Z,100225.13
2023-05-07T12:17:14.902Z,100217.91
2023-05-07T12:19:43.577Z,100207.47
2023-05-07T12:22:10.759Z,100211.94
2023-05-07T12:24:57.546Z,100211.59
2023-05-07T12:27:27.092Z,100211.88
2023-05-07T12:29:53.525Z,100207.09
2023-05-07T12:32:23.296Z,100209.34
2023-05-07T12:34:56.663Z,100210.13
2023-05-07T12:37:27.935Z,100198.69
2023-05-07T12:40:08.576Z,100203.91
2023-05-07T12:42:43.322Z,100202.13
2023-05-07T12:45:14.627Z,100203.38
2023-05-07T12:47:47.333Z,100203.59
2023-05-07T12:50:20.731Z,100200.91
2023-05-07T12:52:48.626Z,100201.72
2023-05-07T12:55:16.844Z,100206.06
2023-05-07T12:57:47.600Z,100189.06
2023-05-07T13:00:17.731Z,100198.91
2023-05-07T13:02:46.287Z,100191.22
2023-05-07T13:05:15.432Z,100191.66
2023-05-07T13:07:42.626Z,100184.84
2023-05-07T13:10:09.712Z,100189.25
2023-05-07T13:12:36.592Z,100200.00
2023-05-07T13:15:05.461Z,100198.78
2023-05-07T13:17:32.443Z,100195.13
2023-05-07T13:19:59.225Z,100181.25
2023-05-07T13:22:25.703Z,100186.41
2023-05-07T13:24:52.192Z,100184.75
2023-05-07T13:27:20.139Z,100182.88
2023-05-07T13:29:46.480Z,100179.81
2023-05-07T13:32:13.014Z,100182.28
2023-05-07T13:34:39.822Z,100179.38
2023-05-07T13:37:11.204Z,100193.00
2023-05-07T13:39:37.966Z,100183.13
2023-05-07T13:42:04.429Z,100185.16
2023-05-07T13:44:30.781Z,100180.63
2023-05-07T13:46:59.813Z,100178.16
2023-05-07T13:49:26.249Z,100173.78
2023-05-07T13:51:54.758Z,100187.66
2023-05-07T13:54:21.813Z,100198.81
2023-05-07T13:56:48.972Z,100231.41
2023-05-07T13:59:15.548Z,100252.47
2023-05-07T14:01:44.322Z,100266.00
2023-05-07T14:04:13.205Z,100263.84
2023-05-07T14:06:42.191Z,100259.84
2023-05-07T14:09:14.385Z,100267.56
2023-05-07T14:11:45.149Z,100263.63
2023-05-07T14:14:14.243Z,100259.34
2023-05-07T14:16:41.186Z,100262.66
2023-05-07T14:19:10.272Z,100267.69
2023-05-07T14:21:36.599Z,100320.22
2023-05-07T14:24:03.168Z,100326.59
2023-05-07T14:26:30.258Z,100344.56
2023-05-07T14:28:59.142Z,100380.16
2023-05-07T14:31:28.209Z,100396.19
2023-05-07T14:33:54.876Z,100403.25
2023-05-07T14:36:22.195Z,100429.31
2023-05-07T14:38:49.989Z,100450.22
2023-05-07T14:41:16.998Z,100474.00
2023-05-07T14:43:43.416Z,100502.81
2023-05-07T14:46:10.071Z,100511.00
2023-05-07T14:48:36.590Z,100532.28
2023-05-07T14:51:03.122Z,100535.59
2023-05-07T14:53:34.127Z,100544.28
2023-05-07T14:56:01.124Z,100541.81
2023-05-07T14:58:30.207Z,100540.50
2023-05-07T15:00:59.750Z,100546.97
2023-05-07T15:03:26.478Z,100562.47
2023-05-07T15:05:53.154Z,100567.69
2023-05-07T15:08:19.615Z,100562.69
2023-05-07T15:10:46.230Z,100578.50
2023-05-07T15:13:15.919Z,100581.72
2023-05-07T15:15:46.647Z,100581.16
2023-05-07T15:18:15.502Z,100589.69
2023-05-07T15:20:44.599Z,100586.50
2023-05-07T15:23:12.666Z,100582.47
2023-05-07T15:25:39.066Z,100595.16
2023-05-07T15:28:10.420Z,100596.69
2023-05-07T15:30:37.140Z,100613.88
2023-05-07T15:33:06.426Z,100613.88
2023-05-07T15:35:32.885Z,100610.53
2023-05-07T15:37:59.354Z,100606.34
2023-05-07T15:40:25.878Z,100602.28
2023-05-07T15:42:55.806Z,100599.34
2023-05-07T15:45:22.432Z,100591.91
2023-05-07T15:47:51.391Z,100586.22
2023-05-07T15:50:18.102Z,100591.50
2023-05-07T15:52:45.892Z,100595.09
2023-05-07T15:55:12.629Z,100588.41
2023-05-07T15:57:39.186Z,100586.75
2023-05-07T16:00:09.286Z,100576.00
2023-05-07T16:02:36.900Z,100577.72
2023-05-07T16:05:03.647Z,100567.81
2023-05-07T16:07:30.259Z,100556.22
2023-05-07T16:09:56.614Z,100557.78
2023-05-07T16:12:23.087Z,100557.09
2023-05-07T16:14:51.300Z,100559.44
2023-05-07T16:17:17.885Z,100567.25
2023-05-07T16:19:44.530Z,100563.09
2023-05-07T16:22:11.294Z,100574.25
2023-05-07T16:24:39.804Z,100576.19
2023-05-07T16:27:06.591Z,100572.31
2023-05-07T16:29:32.984Z,100574.53
2023-05-07T16:31:59.507Z,100581.34
2023-05-07T16:34:25.942Z,100577.84
2023-05-07T16:36:53.564Z,100579.81
2023-05-07T16:39:20.109Z,100584.41
2023-05-07T16:41:50.684Z,100575.34
2023-05-07T16:44:18.062Z,100570.16
2023-05-07T16:46:44.711Z,100568.63
2023-05-07T16:49:11.124Z,100566.41
2023-05-07T16:51:43.369Z,100570.44
2023-05-07T16:54:09.958Z,100569.06
2023-05-07T16:56:38.741Z,100567.25
2023-05-07T16:59:05.122Z,100572.16
2023-05-07T17:01:32.670Z,100573.97
2023-05-07T17:04:01.595Z,100572.31
2023-05-07T17:06:28.273Z,100572.31
2023-05-07T17:08:54.624Z,100573.28
2023-05-07T17:11:23.466Z,100574.25
2023-05-07T17:13:51.669Z,100573.69
2023-05-07T17:16:20.261Z,100574.66
2023-05-07T17:18:46.646Z,100579.13
2023-05-07T17:21:13.009Z,100579.28
2023-05-07T17:23:39.609Z,100581.25
2023-05-07T17:26:11.747Z,100577.03
2023-05-07T17:28:41.240Z,100579.53
2023-05-07T17:31:07.691Z,100579.00
2023-05-07T17:33:34.262Z,100572.31
2023-05-07T17:36:03.161Z,100572.44
2023-05-07T17:38:30.642Z,100567.00
2023-05-07T17:40:58.709Z,100566.72
2023-05-07T17:43:25.271Z,100568.94
2023-05-07T17:45:51.816Z,100568.94
2023-05-07T17:48:18.312Z,100559.44
2023-05-07T17:50:44.936Z,100558.91
2023-05-07T17:53:12.599Z,100572.44
2023-05-07T17:55:43.680Z,100573.53
2023-05-07T17:58:11.102Z,100579.69
2023-05-07T18:00:37.776Z,100575.41
2023-05-07T18:03:05.016Z,100578.03
2023-05-07T18:05:31.952Z,100580.69
2023-05-07T18:07:58.319Z,100580.00
2023-05-07T18:10:24.771Z,100582.06
2023-05-07T18:12:51.543Z,100586.84
2023-05-07T18:15:17.994Z,100592.13
2023-05-07T18:17:44.445Z,100588.91
2023-05-07T18:20:12.309Z,100596.31
2023-05-07T18:22:38.970Z,100596.75
2023-05-07T18:25:06.002Z,100598.81
2023-05-07T18:27:35.076Z,100595.47
2023-05-07T18:30:01.951Z,100605.69
2023-05-07T18:32:28.480Z,100606.94
2023-05-07T18:34:55.134Z,100611.25
2023-05-07T18:37:21.880Z,100620.19
2023-05-07T18:39:49.430Z,100624.06
2023-05-07T18:42:15.844Z,100621.41
2023-05-07T18:44:42.418Z,100619.19
2023-05-07T18:47:08.785Z,100628.97
2023-05-07T18:49:36.045Z,100629.66
2023-05-07T18:52:02.620Z,100641.94
2023-05-07T18:54:28.996Z,100635.94
2023-05-07T18:56:55.407Z,100644.31
2023-05-07T18:59:22.232Z,100643.34
2023-05-07T19:01:50.938Z,100643.59
2023-05-07T19:04:20.509Z,100642.91
2023-05-07T19:06:50.370Z,100642.22
2023-05-07T19:09:16.716Z,100647.50
2023-05-07T19:11:45.751Z,100651.13
2023-05-07T19:14:12.113Z,100661.00
2023-05-07T19:16:38.655Z,100659.34
2023-05-07T19:19:05.906Z,100673.56
2023-05-07T19:21:34.522Z,100674.41
2023-05-07T19:24:00.879Z,100673.56
2023-05-07T19:26:27.408Z,100675.53
2023-05-07T19:29:06.585Z,100676.50
2023-05-07T19:31:39.010Z,100685.28
2023-05-07T19:34:05.391Z,100680.13
2023-05-07T19:36:34.356Z,100688.31
2023-05-07T19:39:01.184Z,100686.50
2023-05-07T19:41:28.582Z,100685.81
2023-05-07T19:43:55.349Z,100696.81
2023-05-07T19:46:22.136Z,100701.16
2023-05-07T19:48:48.626Z,100712.72
2023-05-07T19:51:15.095Z,100704.06
2023-05-07T19:53:41.577Z,100703.94
2023-05-07T19:56:11.356Z,100703.09
2023-05-07T19:58:38.607Z,100706.72
2023-05-07T20:01:08.245Z,100707.69
2023-05-07T20:03:35.399Z,100702.41
2023-05-07T20:06:02.704Z,100707.97
2023-05-07T20:08:29.552Z,100711.19
2023-05-07T20:10:58.059Z,100715.34
2023-05-07T20:13:26.990Z,100723.41
2023-05-07T20:15:58.214Z,100727.31
2023-05-07T20:18:25.416Z,100725.78
2023-05-07T20:20:51.909Z,100733.88
2023-05-07T20:23:18.464Z,100735.03
2023-05-07T20:25:50.233Z,100740.34
2023-05-07T20:28:16.745Z,100741.31
2023-05-07T20:30:49.338Z,100741.59
2023-05-07T20:33:18.382Z,100751.59
2023-05-07T20:35:45.188Z,100749.25
2023-05-07T20:38:14.364Z,100750.38
2023-05-07T20:40:40.840Z,100754.94
2023-05-07T20:43:07.246Z,100761.41
2023-05-07T20:45:35.962Z,100757.59
2023-05-07T20:48:02.606Z,100757.78
2023-05-07T20:50:32.192Z,100764.47
2023-05-07T20:53:00.967Z,100772.00
2023-05-07T20:55:29.977Z,100774.78
2023-05-07T20:57:58.857Z,100778.41
2023-05-07T21:00:27.702Z,100786.19
2023-05-07T21:02:54.370Z,100777.38
2023-05-07T21:05:23.306Z,100781.25
2023-05-07T21:07:49.687Z,100772.59
2023-05-07T21:10:16.181Z,100774.66
2023-05-07T21:12:42.704Z,100774.88
2023-05-07T21:15:12.543Z,100768.78
2023-05-07T21:17:41.402Z,100778.19
2023-05-07T21:20:11.860Z,100772.00
2023-05-07T21:22:41.852Z,100776.75
2023-05-07T21:25:09.500Z,100773.25
2023-05-07T21:27:36.829Z,100777.56
2023-05-07T21:30:05.715Z,100780.09
2023-05-07T21:32:32.380Z,100773.44
2023-05-07T21:35:00.640Z,100783.47
2023-05-07T21:37:27.154Z,100788.50
2023-05-07T21:39:53.617Z,100781.41
2023-05-07T21:42:22.423Z,100785.25
2023-05-07T21:44:49.548Z,100786.34
2023-05-07T21:47:19.245Z,100790.53
2023-05-07T21:49:46.291Z,100784.25
2023-05-07T21:52:19.637Z,100789.00
2023-05-07T21:54:51.596Z,100800.72
2023-05-07T21:57:17.964Z,100796.50
2023-05-07T21:59:44.352Z,100799.53
2023-05-07T22:02:10.717Z,100796.34
2023-05-07T22:04:37.280Z,100795.91
2023-05-07T22:07:06.423Z,100799.53
2023-05-07T22:09:32.816Z,100801.50
2023-05-07T22:12:00.144Z,100794.50
2023-05-07T22:14:27.368Z,100797.28
2023-05-07T22:16:56.273Z,100794.25
2023-05-07T22:19:22.658Z,100791.78
2023-05-07T22:21:49.311Z,100796.91
2023-05-07T22:24:16.311Z,100789.97
2023-05-07T22:26:42.757Z,100792.91
2023-05-07T22:29:09.269Z,100793.88
2023-05-07T22:31:35.720Z,100792.34
2023-05-07T22:34:02.221Z,100799.31
2023-05-07T22:36:28.597Z,100804.75
2023-05-07T22:38:55.043Z,100805.47
2023-05-07T22:41:21.597Z,100800.72
2023-05-07T22:43:48.279Z,100804.06
2023-05-07T22:46:14.901Z,100801.84
2023-05-07T22:48:43.734Z,100800.56
2023-05-07T22:51:14.508Z,100794.88
2023-05-07T22:53:41.105Z,100799.63
2023-05-07T22:56:12.686Z,100796.53
2023-05-07T22:58:39.236Z,100794.88
2023-05-07T23:01:13.366Z,100791.25
2023-05-07T23:03:42.244Z,100790.13
2023-05-07T23:06:08.794Z,100787.63
2023-05-07T23:08:35.457Z,100785.38
2023-05-07T23:11:01.971Z,100780.91
2023-05-07T23:13:28.429Z,100782.72
2023-05-07T23:15:54.884Z,100783.69
2023-05-07T23:18:21.361Z,100775.88
2023-05-07T23:20:47.706Z,100779.50
2023-05-07T23:23:14.311Z,100775.88
2023-05-07T23:25:42.958Z,100778.53
2023-05-07T23:28:09.300Z,100783.69
2023-05-07T23:30:40.001Z,100780.34
2023-05-07T23:33:14.104Z,100779.75
2023-05-07T23:35:40.615Z,100783.97
2023-05-07T23:38:07.181Z,100780.09
2023-05-07T23:40:33.664Z,100773.81
2023-05-07T23:43:00.170Z,100770.19
2023-05-07T23:45:33.960Z,100768.38
2023-05-07T23:48:03.861Z,100775.63
2023-05-07T23:50:30.207Z,100772.25
2023-05-07T23:52:56.624Z,100779.50
2023-05-07T23:55:25.219Z,100775.06
2023-05-07T23:57:51.778Z,100783.56
